createdAt,value
2023-04-14T00:04:57.223Z,94.70
2023-04-14T00:10:04.811Z,100.10
2023-04-14T00:15:14.011Z,101.30
2023-04-14T00:20:21.423Z,147.70
2023-04-14T00:25:29.073Z,78.50
2023-04-14T00:30:36.379Z,97.70
2023-04-14T00:35:44.047Z,92.80
2023-04-14T00:40:51.916Z,92.70
2023-04-14T00:46:02.712Z,108.20
2023-04-14T00:51:11.869Z,90.70
2023-04-14T00:56:19.497Z,106.10
2023-04-14T01:01:27.673Z,96.40
2023-04-14T01:06:36.211Z,98.30
2023-04-14T01:11:55.869Z,95.30
2023-04-14T01:17:15.029Z,98.40
2023-04-14T01:22:28.293Z,90.30
2023-04-14T01:27:45.086Z,103.30
2023-04-14T01:32:55.239Z,98.70
2023-04-14T01:38:10.148Z,101.70
2023-04-14T01:43:18.894Z,104.60
2023-04-14T01:48:27.730Z,98.30
2023-04-14T01:53:37.821Z,89.00
2023-04-14T01:58:46.993Z,112.00
2023-04-14T02:03:55.080Z,118.10
2023-04-14T02:09:04.104Z,103.70
2023-04-14T02:14:12.493Z,130.70
2023-04-14T02:19:23.221Z,119.30
2023-04-14T02:24:31.297Z,115.00
2023-04-14T02:29:42.213Z,113.90
2023-04-14T02:34:53.923Z,115.60
2023-04-14T02:40:09.123Z,111.10
2023-04-14T02:45:22.669Z,113.00
2023-04-14T02:50:32.210Z,104.20
2023-04-14T02:55:40.558Z,114.50
2023-04-14T03:00:50.506Z,116.00
2023-04-14T03:05:58.714Z,116.60
2023-04-14T03:11:08.689Z,103.90
2023-04-14T03:16:17.177Z,114.30
2023-04-14T03:21:25.509Z,111.20
2023-04-14T03:26:37.110Z,107.90
2023-04-14T03:31:46.321Z,102.40
2023-04-14T03:36:57.032Z,86.60
2023-04-14T03:42:06.119Z,83.90
2023-04-14T03:47:16.088Z,84.80
2023-04-14T03:52:26.918Z,76.50
2023-04-14T03:57:35.437Z,82.90
2023-04-14T04:02:43.937Z,88.70
2023-04-14T04:07:53.554Z,74.20
2023-04-14T04:13:02.854Z,74.00
2023-04-14T04:18:12.656Z,86.10
2023-04-14T04:23:23.171Z,91.10
2023-04-14T04:28:31.574Z,91.30
2023-04-14T04:33:39.700Z,78.70
2023-04-14T04:38:50.186Z,77.10
2023-04-14T04:43:59.492Z,74.80
2023-04-14T04:49:06.891Z,85.20
2023-04-14T04:54:14.973Z,78.50
2023-04-14T04:59:22.172Z,84.80
2023-04-14T05:04:29.718Z,77.90
2023-04-14T05:09:37.406Z,82.20
2023-04-14T05:14:45.366Z,93.30
2023-04-14T05:19:53.772Z,93.90
2023-04-14T05:25:01.795Z,79.20
2023-04-14T05:30:11.643Z,82.90
2023-04-14T05:35:19.666Z,168.30
2023-04-14T05:40:30.660Z,84.70
2023-04-14T05:45:39.286Z,80.10
2023-04-14T05:50:47.300Z,80.80
2023-04-14T05:55:57.626Z,71.50
2023-04-14T06:01:05.523Z,90.60
2023-04-14T06:06:13.133Z,76.90
2023-04-14T06:11:20.847Z,75.30
2023-04-14T06:16:28.757Z,82.90
2023-04-14T06:21:36.003Z,74.70
2023-04-14T06:26:43.563Z,77.60
2023-04-14T06:31:52.115Z,67.00
2023-04-14T06:37:02.905Z,79.00
2023-04-14T06:42:13.442Z,78.10
2023-04-14T06:47:22.732Z,81.60
2023-04-14T06:52:30.389Z,84.40
2023-04-14T06:57:37.945Z,77.40
2023-04-14T07:02:45.569Z,78.90
2023-04-14T07:07:53.599Z,351.80
2023-04-14T07:13:01.241Z,72.50
2023-04-14T07:18:09.756Z,67.50
2023-04-14T07:23:17.362Z,61.50
2023-04-14T07:28:26.091Z,51.90
2023-04-14T07:33:34.952Z,207.70
2023-04-14T07:38:44.088Z,57.50
2023-04-14T07:43:55.750Z,41.30
2023-04-14T07:49:03.357Z,44.50
2023-04-14T07:54:11.491Z,43.60
2023-04-14T07:59:19.248Z,46.20
2023-04-14T08:04:28.011Z,47.10
2023-04-14T08:09:36.152Z,47.80
2023-04-14T08:14:43.920Z,49.40
2023-04-14T08:19:51.749Z,41.30
2023-04-14T08:24:59.317Z,295.20
2023-04-14T08:30:09.585Z,36.90
2023-04-14T08:35:35.540Z,48.40
2023-04-14T08:40:49.317Z,44.20
2023-04-14T08:45:59.519Z,43.90
2023-04-14T08:51:15.837Z,39.10
2023-04-14T08:56:27.379Z,43.30
2023-04-14T09:01:37.196Z,34.20
2023-04-14T09:06:44.698Z,29.70
2023-04-14T09:11:53.124Z,32.10
2023-04-14T09:17:00.890Z,28.20
2023-04-14T09:22:09.651Z,22.80
2023-04-14T09:27:17.865Z,22.60
2023-04-14T09:32:25.176Z,19.30
2023-04-14T09:37:45.383Z,15.90
2023-04-14T09:42:52.839Z,15.10
2023-04-14T09:54:04.441Z,10.70
2023-04-14T09:59:10.215Z,10.40
2023-04-14T10:04:23.972Z,10.90
2023-04-14T10:09:30.911Z,12.50
2023-04-14T10:14:35.814Z,13.20
2023-04-14T10:19:39.884Z,15.80
2023-04-14T10:24:43.914Z,11.10
2023-04-14T10:29:47.889Z,13.20
2023-04-14T10:34:59.662Z,13.60
2023-04-14T10:40:06.454Z,13.70
2023-04-14T10:45:12.232Z,13.60
2023-04-14T10:50:18.316Z,9.90
2023-04-14T10:55:24.006Z,10.20
2023-04-14T11:00:31.368Z,10.90
2023-04-14T11:05:36.254Z,11.90
2023-04-14T11:10:41.376Z,10.40
2023-04-14T11:15:50.783Z,11.20
2023-04-14T11:21:01.094Z,10.00
2023-04-14T11:26:07.690Z,14.20
2023-04-14T11:31:13.301Z,11.60
2023-04-14T11:36:17.504Z,14.10
2023-04-14T11:41:21.902Z,9.50
2023-04-14T11:46:25.988Z,8.80
2023-04-14T11:51:31.859Z,7.50
2023-04-14T11:56:36.776Z,9.30
2023-04-14T12:01:40.584Z,14.50
2023-04-14T12:06:45.016Z,10.80
2023-04-14T12:11:55.305Z,11.90
2023-04-14T12:16:59.308Z,11.20
2023-04-14T12:22:03.065Z,11.90
2023-04-14T12:27:08.924Z,8.80
2023-04-14T12:32:13.791Z,9.80
2023-04-14T12:37:17.977Z,9.20
2023-04-14T12:42:21.707Z,12.20
2023-04-14T12:47:30.156Z,15.40
2023-04-14T12:52:34.582Z,16.70
2023-04-14T12:57:38.418Z,13.50
2023-04-14T13:02:44.835Z,13.20
2023-04-14T13:07:50.201Z,17.10
2023-04-14T13:12:53.842Z,16.60
2023-04-14T13:17:59.929Z,12.80
2023-04-14T13:23:03.769Z,16.50
2023-04-14T13:28:07.568Z,15.50
2023-04-14T13:33:11.684Z,14.80
2023-04-14T13:38:15.866Z,12.90
2023-04-14T13:43:19.654Z,11.50
2023-04-14T13:48:23.621Z,12.70
2023-04-14T13:53:27.335Z,13.10
2023-04-14T13:58:31.722Z,17.30
2023-04-14T14:03:35.392Z,15.50
2023-04-14T14:08:41.908Z,14.80
2023-04-14T14:18:48.530Z,16.10
2023-04-14T14:23:52.310Z,14.90
2023-04-14T14:28:56.190Z,12.30
2023-04-14T14:34:00.207Z,12.20
2023-04-14T14:39:04.632Z,13.80
2023-04-14T14:44:08.427Z,14.70
2023-04-14T14:49:15.908Z,12.20
2023-04-14T14:54:19.615Z,12.50
2023-04-14T14:59:23.381Z,15.90
2023-04-14T15:04:27.367Z,14.30
2023-04-14T15:09:31.998Z,12.50
2023-04-14T15:14:35.885Z,12.70
2023-04-14T15:19:40.936Z,14.00
2023-04-14T15:24:45.947Z,12.10
2023-04-14T15:29:49.780Z,12.60
2023-04-14T15:34:54.417Z,10.80
2023-04-14T15:39:58.484Z,12.50
2023-04-14T15:45:02.294Z,12.40
2023-04-14T15:50:09.901Z,11.40
2023-04-14T15:55:14.995Z,14.70
2023-04-14T16:00:22.007Z,14.30
2023-04-14T16:05:25.755Z,13.80
2023-04-14T16:10:29.828Z,16.60
2023-04-14T16:15:34.423Z,15.50
2023-04-14T16:20:37.998Z,11.80
2023-04-14T16:25:42.073Z,16.40
2023-04-14T16:30:45.962Z,17.20
2023-04-14T16:35:49.746Z,17.70
2023-04-14T16:40:56.959Z,19.30
2023-04-14T16:46:04.736Z,17.90
2023-04-14T16:51:10.076Z,18.70
2023-04-14T16:56:14.774Z,16.60
2023-04-14T17:01:19.849Z,20.60
2023-04-14T17:06:23.744Z,15.90
2023-04-14T17:11:27.616Z,21.20
2023-04-14T17:16:31.954Z,14.90
2023-04-14T17:21:35.727Z,18.70
2023-04-14T17:26:39.671Z,19.00
2023-04-14T17:31:44.550Z,26.60
2023-04-14T17:36:49.446Z,22.80
2023-04-14T17:41:54.384Z,21.40
2023-04-14T17:47:00.324Z,18.60
2023-04-14T17:52:04.190Z,23.80
2023-04-14T17:57:09.539Z,24.80
2023-04-14T18:02:15.037Z,22.10
2023-04-14T18:07:19.339Z,24.00
2023-04-14T18:12:23.450Z,23.10
2023-04-14T18:32:51.506Z,31.40
2023-04-14T18:37:59.099Z,24.80
2023-04-14T18:43:06.371Z,28.80
2023-04-14T18:48:14.612Z,33.90
2023-04-14T18:53:21.933Z,19.90
2023-04-14T18:58:30.610Z,11.90
2023-04-14T19:03:38.794Z,10.70
2023-04-14T19:08:46.462Z,10.20
2023-04-14T19:13:55.013Z,11.20
2023-04-14T19:19:02.745Z,11.60
2023-04-14T19:24:10.418Z,11.20
2023-04-14T19:29:19.042Z,10.20
2023-04-14T19:34:27.766Z,13.60
2023-04-14T19:39:36.159Z,10.80
2023-04-14T19:44:43.718Z,12.50
2023-04-14T19:49:51.781Z,9.10
2023-04-14T19:54:59.560Z,11.90
2023-04-14T20:00:09.342Z,9.40
2023-04-14T20:05:17.143Z,12.50
2023-04-14T20:10:24.635Z,9.40
2023-04-14T20:15:32.389Z,11.60
2023-04-14T20:20:41.972Z,12.20
2023-04-14T20:25:50.977Z,9.80
2023-04-14T20:30:58.500Z,8.40
2023-04-14T20:36:07.080Z,10.60
2023-04-14T20:41:14.923Z,10.60
2023-04-14T20:46:23.486Z,9.40
2023-04-14T20:51:32.573Z,12.20
2023-04-14T20:56:40.785Z,15.40
2023-04-14T21:01:49.453Z,19.80
2023-04-14T21:06:57.754Z,18.50
2023-04-14T21:12:15.727Z,17.70
2023-04-14T21:17:24.250Z,14.50
2023-04-14T21:22:32.461Z,17.10
2023-04-14T21:27:39.863Z,11.80
2023-04-14T21:32:47.439Z,12.90
2023-04-14T21:37:55.344Z,13.50
2023-04-14T21:43:02.890Z,14.10
2023-04-14T21:48:10.886Z,12.10
2023-04-14T21:53:19.452Z,12.40
2023-04-14T21:58:27.439Z,11.10
2023-04-14T22:03:37.573Z,11.00
2023-04-14T22:08:45.145Z,9.90
2023-04-14T22:13:52.815Z,10.20
2023-04-14T22:19:01.122Z,8.50
2023-04-14T22:24:10.295Z,10.80
2023-04-14T22:29:17.970Z,10.50
2023-04-14T22:34:25.605Z,9.30
2023-04-14T22:39:33.238Z,11.50
2023-04-14T22:44:41.341Z,14.30
2023-04-14T22:49:48.799Z,11.30
2023-04-14T22:54:56.730Z,14.40
2023-04-14T23:00:09.250Z,9.40
2023-04-14T23:05:17.209Z,11.50
2023-04-14T23:10:24.922Z,9.70
2023-04-14T23:15:33.016Z,11.60
2023-04-14T23:20:40.798Z,11.00
2023-04-14T23:25:48.261Z,8.50
2023-04-14T23:30:56.121Z,6.80
2023-04-14T23:36:03.498Z,9.10
2023-04-14T23:41:11.647Z,10.80
2023-04-14T23:46:19.395Z,8.00
2023-04-14T23:51:27.162Z,6.10
2023-04-14T23:56:34.794Z,5.00
